createdAt,value
2018-09-05T00:02:09.689Z,101339.94
2018-09-05T00:04:38.865Z,101341.08
2018-09-05T00:07:09.115Z,101337.14
2018-09-05T00:09:38.953Z,101340.84
2018-09-05T00:12:08.591Z,101340.23
2018-09-05T00:14:38.851Z,101339.92
2018-09-05T00:17:10.399Z,101336.02
2018-09-05T00:19:39.829Z,101334.36
2018-09-05T00:22:09.011Z,101333.62
2018-09-05T00:24:39.117Z,101330.88
2018-09-05T00:27:08.286Z,101330.88
2018-09-05T00:29:37.610Z,101330.27
2018-09-05T00:32:07.569Z,101332.14
2018-09-05T00:34:37.156Z,101330.27
2018-09-05T00:37:06.355Z,101330.12
2018-09-05T00:39:35.720Z,101334.52
2018-09-05T00:42:05.638Z,101330.52
2018-09-05T00:44:35.776Z,101333.81
2018-09-05T00:47:05.685Z,101330.80
2018-09-05T00:49:36.687Z,101331.26
2018-09-05T00:52:05.918Z,101336.36
2018-09-05T00:54:36.913Z,101331.56
2018-09-05T00:57:06.372Z,101337.20
2018-09-05T00:59:35.365Z,101336.06
2018-09-05T01:02:05.319Z,101347.92
2018-09-05T01:04:34.169Z,101337.72
2018-09-05T01:07:12.923Z,101340.48
2018-09-05T01:09:41.928Z,101337.38
2018-09-05T01:12:10.841Z,101343.30
2018-09-05T01:14:39.923Z,101341.64
2018-09-05T01:17:09.221Z,101333.77
2018-09-05T01:19:38.590Z,101339.19
2018-09-05T01:22:07.549Z,101338.56
2018-09-05T01:24:36.839Z,101337.64
2018-09-05T01:27:07.441Z,101336.81
2018-09-05T01:29:38.487Z,101335.45
2018-09-05T01:32:08.180Z,101339.92
2018-09-05T01:34:38.116Z,101340.66
2018-09-05T01:37:08.085Z,101342.74
2018-09-05T01:39:37.333Z,101343.94
2018-09-05T01:42:07.304Z,101342.58
2018-09-05T01:44:37.047Z,101339.88
2018-09-05T01:47:06.463Z,101346.02
2018-09-05T01:49:36.135Z,101353.30
2018-09-05T01:52:05.358Z,101349.49
2018-09-05T01:54:35.854Z,101347.21
2018-09-05T01:57:05.697Z,101349.61
2018-09-05T01:59:34.721Z,101356.67
2018-09-05T02:02:03.977Z,101356.83
2018-09-05T02:04:32.999Z,101349.61
2018-09-05T02:07:02.715Z,101344.66
2018-09-05T02:09:32.405Z,101348.09
2018-09-05T02:12:02.661Z,101346.73
2018-09-05T02:14:32.182Z,101348.83
2018-09-05T02:17:02.274Z,101349.28
2018-09-05T02:19:31.366Z,101338.74
2018-09-05T02:22:00.498Z,101343.56
2018-09-05T02:24:29.904Z,101344.50
2018-09-05T02:26:59.005Z,101348.49
2018-09-05T02:29:29.663Z,101350.89
2018-09-05T02:31:58.624Z,101352.45
2018-09-05T02:34:27.685Z,101354.63
2018-09-05T02:36:57.789Z,101361.35
2018-09-05T02:39:26.729Z,101359.02
2018-09-05T02:41:56.166Z,101359.00
2018-09-05T02:44:26.490Z,101364.03
2018-09-05T02:46:56.069Z,101357.11
2018-09-05T02:49:25.618Z,101361.89
2018-09-05T02:51:55.774Z,101361.75
2018-09-05T02:54:24.922Z,101359.92
2018-09-05T02:56:54.225Z,101356.91
2018-09-05T02:59:23.929Z,101356.52
2018-09-05T03:01:53.393Z,101362.77
2018-09-05T03:04:22.703Z,101364.42
2018-09-05T03:06:51.893Z,101358.39
2018-09-05T03:09:20.865Z,101364.50
2018-09-05T03:11:50.467Z,101366.81
2018-09-05T03:14:19.454Z,101365.53
2018-09-05T03:16:49.099Z,101371.25
2018-09-05T03:19:18.014Z,101374.83
2018-09-05T03:21:47.033Z,101369.42
2018-09-05T03:24:16.375Z,101372.53
2018-09-05T03:26:45.720Z,101375.23
2018-09-05T03:29:16.519Z,101370.56
2018-09-05T03:31:45.564Z,101368.48
2018-09-05T03:34:14.818Z,101371.32
2018-09-05T03:36:43.835Z,101370.59
2018-09-05T03:39:13.857Z,101372.25
2018-09-05T03:41:42.877Z,101377.94
2018-09-05T03:44:11.937Z,101376.59
2018-09-05T03:46:43.080Z,101383.34
2018-09-05T03:49:11.946Z,101383.55
2018-09-05T03:51:42.374Z,101382.93
2018-09-05T03:54:12.147Z,101385.84
2018-09-05T03:56:42.016Z,101375.23
2018-09-05T03:59:11.570Z,101384.98
2018-09-05T04:01:42.595Z,101388.12
2018-09-05T04:04:11.952Z,101387.78
2018-09-05T04:06:41.102Z,101387.78
2018-09-05T04:09:11.147Z,101389.58
2018-09-05T04:11:40.631Z,101394.16
2018-09-05T04:14:10.674Z,101389.80
2018-09-05T04:16:41.059Z,101400.29
2018-09-05T04:19:10.717Z,101388.51
2018-09-05T04:21:39.897Z,101392.87
2018-09-05T04:24:09.540Z,101389.13
2018-09-05T04:26:39.765Z,101387.71
2018-09-05T04:29:10.406Z,101387.71
2018-09-05T04:31:41.099Z,101388.92
2018-09-05T04:34:10.969Z,101392.66
2018-09-05T04:36:40.193Z,101393.46
2018-09-05T04:39:10.361Z,101394.64
2018-09-05T04:41:40.167Z,101399.87
2018-09-05T04:44:10.033Z,101400.29
2018-09-05T04:46:39.603Z,101404.52
2018-09-05T04:49:09.264Z,101406.84
2018-09-05T04:51:39.204Z,101405.14
2018-09-05T04:54:08.767Z,101404.62
2018-09-05T04:56:38.217Z,101407.43
2018-09-05T04:59:07.920Z,101411.03
2018-09-05T05:01:37.763Z,101409.95
2018-09-05T05:04:07.037Z,101415.30
2018-09-05T05:06:36.786Z,101416.75
2018-09-05T05:09:09.535Z,101419.97
2018-09-05T05:11:38.564Z,101418.28
2018-09-05T05:14:07.994Z,101426.70
2018-09-05T05:16:37.322Z,101429.85
2018-09-05T05:19:06.288Z,101424.20
2018-09-05T05:21:35.973Z,101427.73
2018-09-05T05:24:06.967Z,101435.61
2018-09-05T05:26:36.651Z,101441.64
2018-09-05T05:29:06.554Z,101438.94
2018-09-05T05:31:36.274Z,101435.81
2018-09-05T05:34:05.877Z,101433.48
2018-09-05T05:36:34.743Z,101431.05
2018-09-05T05:39:04.775Z,101434.17
2018-09-05T05:41:34.186Z,101433.45
2018-09-05T05:44:03.929Z,101432.92
2018-09-05T05:46:33.723Z,101438.44
2018-09-05T05:49:03.350Z,101439.65
2018-09-05T05:51:33.624Z,101440.79
2018-09-05T05:54:03.121Z,101441.20
2018-09-05T05:56:32.828Z,101442.72
2018-09-05T05:59:02.509Z,101446.09
2018-09-05T06:01:32.633Z,101445.84
2018-09-05T06:04:02.759Z,101440.02
2018-09-05T06:06:32.195Z,101443.97
2018-09-05T06:09:02.119Z,101439.88
2018-09-05T06:11:31.543Z,101447.25
2018-09-05T06:14:01.834Z,101444.60
2018-09-05T06:16:31.236Z,101450.53
2018-09-05T06:19:00.774Z,101455.73
2018-09-05T06:21:30.102Z,101456.05
2018-09-05T06:23:59.030Z,101455.23
2018-09-05T06:26:28.934Z,101463.14
2018-09-05T06:28:58.945Z,101454.13
2018-09-05T06:31:27.844Z,101463.14
2018-09-05T06:33:57.922Z,101466.47
2018-09-05T06:36:26.836Z,101468.98
2018-09-05T06:38:56.469Z,101467.11
2018-09-05T06:41:27.781Z,101469.25
2018-09-05T06:43:57.804Z,101467.37
2018-09-05T06:46:27.187Z,101465.04
2018-09-05T06:48:56.837Z,101462.38
2018-09-05T06:51:28.308Z,101464.93
2018-09-05T06:53:57.269Z,101463.11
2018-09-05T06:56:26.293Z,101464.09
2018-09-05T06:58:56.366Z,101475.48
2018-09-05T07:01:25.305Z,101471.27
2018-09-05T07:03:55.643Z,101471.42
2018-09-05T07:06:24.686Z,101471.83
2018-09-05T07:08:53.905Z,101469.83
2018-09-05T07:11:23.688Z,101469.67
2018-09-05T07:13:53.422Z,101474.32
2018-09-05T07:16:22.726Z,101473.34
2018-09-05T07:18:52.555Z,101472.59
2018-09-05T07:21:22.266Z,101469.17
2018-09-05T07:23:51.951Z,101466.16
2018-09-05T07:26:21.057Z,101471.91
2018-09-05T07:28:50.348Z,101470.63
2018-09-05T07:31:19.871Z,101474.82
2018-09-05T07:33:48.791Z,101469.45
2018-09-05T07:36:19.193Z,101466.97
2018-09-05T07:38:48.211Z,101472.27
2018-09-05T07:41:17.839Z,101475.50
2018-09-05T07:43:48.047Z,101479.62
2018-09-05T07:46:17.404Z,101478.57
2018-09-05T07:48:47.098Z,101478.39
2018-09-05T07:51:16.484Z,101482.27
2018-09-05T07:53:46.430Z,101482.16
2018-09-05T07:56:15.822Z,101481.86
2018-09-05T07:58:45.762Z,101472.05
2018-09-05T08:01:14.727Z,101475.48
2018-09-05T08:03:44.301Z,101476.45
2018-09-05T08:06:13.873Z,101479.47
2018-09-05T08:08:43.104Z,101480.51
2018-09-05T08:11:13.302Z,101477.47
2018-09-05T08:13:42.126Z,101479.12
2018-09-05T08:16:11.283Z,101473.27
2018-09-05T08:18:40.863Z,101473.70
2018-09-05T08:21:10.787Z,101470.50
2018-09-05T08:23:40.553Z,101469.65
2018-09-05T08:26:10.204Z,101475.00
2018-09-05T08:28:39.126Z,101475.16
2018-09-05T08:31:09.179Z,101470.87
2018-09-05T08:33:39.819Z,101473.27
2018-09-05T08:36:09.971Z,101477.31
2018-09-05T08:38:40.004Z,101464.01
2018-09-05T08:41:10.893Z,101461.93
2018-09-05T08:43:41.203Z,101472.87
2018-09-05T08:46:10.268Z,101460.85
2018-09-05T08:48:39.543Z,101464.98
2018-09-05T08:51:09.145Z,101468.06
2018-09-05T08:53:38.703Z,101464.22
2018-09-05T08:56:08.524Z,101467.45
2018-09-05T08:58:37.614Z,101463.55
2018-09-05T09:01:07.252Z,101459.88
2018-09-05T09:03:36.763Z,101456.23
2018-09-05T09:06:06.664Z,101466.98
2018-09-05T09:08:37.320Z,101455.25
2018-09-05T09:11:07.019Z,101456.94
2018-09-05T09:13:36.954Z,101464.27
2018-09-05T09:16:07.828Z,101463.17
2018-09-05T09:18:38.655Z,101468.07
2018-09-05T09:21:08.023Z,101478.50
2018-09-05T09:23:38.525Z,101475.48
2018-09-05T09:26:08.802Z,101470.86
2018-09-05T09:28:37.854Z,101474.27
2018-09-05T09:31:07.809Z,101471.13
2018-09-05T09:33:37.382Z,101463.37
2018-09-05T09:36:06.947Z,101465.11
2018-09-05T09:38:35.891Z,101466.12
2018-09-05T09:41:05.987Z,101457.59
2018-09-05T09:43:36.177Z,101455.36
2018-09-05T09:46:05.767Z,101453.72
2018-09-05T09:48:35.875Z,101447.69
2018-09-05T09:51:05.916Z,101447.55
2018-09-05T09:53:35.095Z,101452.03
2018-09-05T09:56:04.566Z,101441.80
2018-09-05T09:58:35.999Z,101438.86
2018-09-05T10:01:11.442Z,101435.89
2018-09-05T10:03:46.348Z,101433.22
2018-09-05T10:06:20.820Z,101423.08
2018-09-05T10:08:55.313Z,101426.59
2018-09-05T10:11:30.366Z,101426.14
2018-09-05T10:14:05.507Z,101427.84
2018-09-05T10:17:43.596Z,101427.76
2018-09-05T10:20:12.819Z,101431.26
2018-09-05T10:22:43.222Z,101435.41
2018-09-05T10:25:13.468Z,101428.24
2018-09-05T10:27:43.323Z,101424.97
2018-09-05T10:30:13.530Z,101422.14
2018-09-05T10:32:42.678Z,101420.91
2018-09-05T10:35:11.933Z,101423.67
2018-09-05T10:37:41.048Z,101415.98
2018-09-05T10:40:09.937Z,101415.69
2018-09-05T10:42:39.361Z,101421.19
2018-09-05T10:45:09.315Z,101414.19
2018-09-05T10:47:38.717Z,101409.03
2018-09-05T10:50:08.010Z,101404.20
2018-09-05T10:52:38.172Z,101405.56
2018-09-05T10:55:07.060Z,101403.48
2018-09-05T10:57:36.080Z,101405.27
2018-09-05T11:00:06.066Z,101400.77
2018-09-05T11:02:36.013Z,101402.37
2018-09-05T11:05:05.623Z,101402.96
2018-09-05T11:07:35.479Z,101402.33
2018-09-05T11:10:04.902Z,101396.28
2018-09-05T11:12:34.541Z,101393.61
2018-09-05T11:15:03.477Z,101391.95
2018-09-05T11:17:33.274Z,101390.20
2018-09-05T11:20:02.835Z,101394.14
2018-09-05T11:22:32.297Z,101381.59
2018-09-05T11:25:01.631Z,101388.73
2018-09-05T11:27:31.944Z,101383.70
2018-09-05T11:30:01.900Z,101381.94
2018-09-05T11:32:31.774Z,101378.79
2018-09-05T11:35:01.239Z,101376.67
2018-09-05T11:37:30.684Z,101380.64
2018-09-05T11:39:59.776Z,101379.86
2018-09-05T11:42:29.383Z,101379.97
2018-09-05T11:45:00.137Z,101381.03
2018-09-05T11:47:29.527Z,101377.98
2018-09-05T11:49:59.906Z,101382.66
2018-09-05T11:52:29.168Z,101382.91
2018-09-05T11:54:58.656Z,101382.66
2018-09-05T11:57:27.996Z,101385.22
2018-09-05T11:59:58.185Z,101386.31
2018-09-05T12:02:27.873Z,101385.62
2018-09-05T12:04:57.456Z,101381.64
2018-09-05T12:07:27.581Z,101381.48
2018-09-05T12:09:57.649Z,101376.98
2018-09-05T12:12:28.193Z,101377.44
2018-09-05T12:14:58.084Z,101370.93
2018-09-05T12:17:28.107Z,101366.77
2018-09-05T12:19:57.977Z,101373.20
2018-09-05T12:22:28.544Z,101368.30
2018-09-05T12:24:58.428Z,101364.97
2018-09-05T12:27:27.480Z,101362.87
2018-09-05T12:29:56.903Z,101368.15
2018-09-05T12:32:26.356Z,101359.03
2018-09-05T12:34:55.106Z,101356.30
2018-09-05T12:37:23.970Z,101360.14
2018-09-05T12:39:53.951Z,101352.20
2018-09-05T12:42:23.595Z,101348.67
2018-09-05T12:44:53.598Z,101348.38
2018-09-05T12:47:23.925Z,101347.91
2018-09-05T12:49:53.104Z,101341.40
2018-09-05T12:52:23.337Z,101339.47
2018-09-05T12:54:52.305Z,101344.66
2018-09-05T12:57:22.092Z,101341.56
2018-09-05T12:59:51.732Z,101332.35
2018-09-05T13:02:21.762Z,101330.73
2018-09-05T13:04:52.065Z,101326.06
2018-09-05T13:07:21.298Z,101322.25
2018-09-05T13:09:51.332Z,101320.89
2018-09-05T13:12:21.835Z,101318.67
2018-09-05T13:14:50.713Z,101316.21
2018-09-05T13:17:20.190Z,101322.23
2018-09-05T13:19:50.966Z,101318.59
2018-09-05T13:22:20.888Z,101319.06
2018-09-05T13:24:50.382Z,101323.62
2018-09-05T13:27:19.325Z,101320.78
2018-09-05T13:29:49.445Z,101323.55
2018-09-05T13:32:19.338Z,101317.39
2018-09-05T13:34:49.157Z,101325.18
2018-09-05T13:37:18.422Z,101321.59
2018-09-05T13:39:48.386Z,101321.78
2018-09-05T13:42:18.463Z,101319.45
2018-09-05T13:44:47.559Z,101321.67
2018-09-05T13:47:16.578Z,101320.41
2018-09-05T13:49:46.366Z,101315.64
2018-09-05T13:52:19.997Z,101318.48
2018-09-05T13:54:49.241Z,101316.86
2018-09-05T13:57:18.061Z,101307.87
2018-09-05T13:59:47.495Z,101309.14
2018-09-05T14:02:16.989Z,101300.95
2018-09-05T14:04:47.018Z,101303.53
2018-09-05T14:07:16.952Z,101303.84
2018-09-05T14:09:46.291Z,101297.42
2018-09-05T14:12:16.583Z,101296.03
2018-09-05T14:14:46.439Z,101304.70
2018-09-05T14:17:16.187Z,101296.21
2018-09-05T14:19:46.082Z,101300.56
2018-09-05T14:22:15.635Z,101296.08
2018-09-05T14:24:45.991Z,101297.16
2018-09-05T14:27:15.442Z,101292.19
2018-09-05T14:29:46.487Z,101295.81
2018-09-05T14:32:17.531Z,101293.16
2018-09-05T14:34:48.514Z,101291.73
2018-09-05T14:37:17.974Z,101289.20
2018-09-05T14:39:46.944Z,101289.61
2018-09-05T14:42:17.026Z,101292.38
2018-09-05T14:44:47.239Z,101283.07
2018-09-05T14:47:16.313Z,101285.97
2018-09-05T14:49:45.882Z,101284.83
2018-09-05T14:52:14.947Z,101276.70
2018-09-05T14:54:43.690Z,101279.64
2018-09-05T14:57:12.790Z,101281.34
2018-09-05T14:59:41.534Z,101277.63
2018-09-05T15:02:10.319Z,101271.29
2018-09-05T15:04:39.394Z,101270.64
2018-09-05T15:07:09.052Z,101265.77
2018-09-05T15:09:38.737Z,101265.83
2018-09-05T15:12:09.044Z,101262.17
2018-09-05T15:14:39.126Z,101261.53
2018-09-05T15:17:10.187Z,101261.19
2018-09-05T15:19:40.151Z,101266.67
2018-09-05T15:22:09.175Z,101267.49
2018-09-05T15:24:38.290Z,101265.30
2018-09-05T15:27:08.037Z,101264.03
2018-09-05T15:29:38.226Z,101256.70
2018-09-05T15:32:08.691Z,101260.53
2018-09-05T15:34:38.174Z,101253.47
2018-09-05T15:37:07.738Z,101260.30
2018-09-05T15:39:37.484Z,101258.05
2018-09-05T15:42:07.281Z,101260.78
2018-09-05T15:44:38.172Z,101257.68
2018-09-05T15:47:07.484Z,101259.41
2018-09-05T15:49:36.667Z,101260.90
2018-09-05T15:52:07.559Z,101258.02
2018-09-05T15:54:37.226Z,101259.78
2018-09-05T15:57:08.366Z,101257.18
2018-09-05T15:59:37.689Z,101259.48
2018-09-05T16:02:07.122Z,101254.45
2018-09-05T16:04:37.411Z,101255.45
2018-09-05T16:07:07.741Z,101252.56
2018-09-05T16:09:37.320Z,101252.08
2018-09-05T16:12:06.354Z,101253.03
2018-09-05T16:14:36.383Z,101248.83
2018-09-05T16:17:06.376Z,101247.72
2018-09-05T16:19:35.714Z,101240.86
2018-09-05T16:22:05.570Z,101247.63
2018-09-05T16:24:35.451Z,101242.12
2018-09-05T16:27:04.770Z,101241.25
2018-09-05T16:29:34.124Z,101233.56
2018-09-05T16:32:03.623Z,101238.43
2018-09-05T16:34:33.356Z,101229.41
2018-09-05T16:37:02.989Z,101236.48
2018-09-05T16:39:31.987Z,101229.31
2018-09-05T16:42:02.264Z,101235.84
2018-09-05T16:44:32.254Z,101246.36
2018-09-05T16:47:01.455Z,101238.08
2018-09-05T16:49:31.153Z,101234.19
2018-09-05T16:52:00.284Z,101239.83
2018-09-05T16:54:29.332Z,101237.02
2018-09-05T16:57:00.089Z,101243.23
2018-09-05T16:59:29.351Z,101236.33
2018-09-05T17:01:59.350Z,101240.10
2018-09-05T17:04:28.672Z,101239.75
2018-09-05T17:06:58.452Z,101235.86
2018-09-05T17:09:27.403Z,101242.59
2018-09-05T17:11:56.461Z,101245.86
2018-09-05T17:14:25.357Z,101244.15
2018-09-05T17:16:54.472Z,101242.72
2018-09-05T17:19:23.455Z,101240.52
2018-09-05T17:21:52.389Z,101247.31
2018-09-05T17:24:23.137Z,101239.93
2018-09-05T17:26:52.253Z,101246.15
2018-09-05T17:29:22.015Z,101245.27
2018-09-05T17:31:51.098Z,101249.65
2018-09-05T17:34:20.367Z,101246.91
2018-09-05T17:36:49.603Z,101245.72
2018-09-05T17:39:19.274Z,101248.62
2018-09-05T17:41:48.377Z,101245.83
2018-09-05T17:44:19.321Z,101249.80
2018-09-05T17:46:48.605Z,101246.97
2018-09-05T17:49:18.445Z,101250.46
2018-09-05T17:51:48.840Z,101259.91
2018-09-05T17:54:18.241Z,101259.05
2018-09-05T17:56:47.331Z,101261.13
2018-09-05T17:59:16.504Z,101263.82
2018-09-05T18:01:46.522Z,101262.94
2018-09-05T18:04:16.161Z,101258.51
2018-09-05T18:06:46.323Z,101254.94
2018-09-05T18:09:15.641Z,101257.59
2018-09-05T18:11:44.955Z,101261.36
2018-09-05T18:14:14.265Z,101258.52
2018-09-05T18:16:47.209Z,101256.30
2018-09-05T18:19:17.500Z,101251.87
2018-09-05T18:21:47.043Z,101254.00
2018-09-05T18:24:16.516Z,101255.09
2018-09-05T18:26:45.517Z,101254.20
2018-09-05T18:29:14.761Z,101252.79
2018-09-05T18:31:44.163Z,101254.67
2018-09-05T18:34:14.323Z,101257.60
2018-09-05T18:36:43.296Z,101259.44
2018-09-05T18:39:13.132Z,101258.58
2018-09-05T18:41:42.160Z,101252.02
2018-09-05T18:44:12.134Z,101256.92
2018-09-05T18:46:42.699Z,101254.37
2018-09-05T18:49:12.555Z,101255.73
2018-09-05T18:51:42.919Z,101261.14
2018-09-05T18:54:12.305Z,101259.69
2018-09-05T18:56:43.008Z,101259.39
2018-09-05T18:59:12.875Z,101265.24
2018-09-05T19:01:43.064Z,101260.11
2018-09-05T19:04:12.369Z,101267.40
2018-09-05T19:06:42.157Z,101263.72
2018-09-05T19:09:12.949Z,101263.34
2018-09-05T19:11:43.733Z,101265.61
2018-09-05T19:14:13.251Z,101270.66
2018-09-05T19:16:42.826Z,101268.17
2018-09-05T19:19:11.872Z,101264.87
2018-09-05T19:21:41.317Z,101268.17
2018-09-05T19:24:11.795Z,101269.06
2018-09-05T19:26:41.908Z,101262.56
2018-09-05T19:29:11.554Z,101271.19
2018-09-05T19:31:41.329Z,101266.64
2018-09-05T19:34:10.716Z,101271.92
2018-09-05T19:36:39.845Z,101272.23
2018-09-05T19:39:10.428Z,101275.05
2018-09-05T19:41:39.819Z,101275.17
2018-09-05T19:44:09.011Z,101275.55
2018-09-05T19:46:38.126Z,101271.58
2018-09-05T19:49:07.451Z,101272.48
2018-09-05T19:51:36.401Z,101274.70
2018-09-05T19:54:06.252Z,101274.14
2018-09-05T19:56:35.759Z,101268.73
2018-09-05T19:59:05.744Z,101275.67
2018-09-05T20:01:35.458Z,101277.85
2018-09-05T20:04:05.027Z,101280.63
2018-09-05T20:06:34.107Z,101282.42
2018-09-05T20:09:03.105Z,101280.73
2018-09-05T20:11:33.552Z,101284.77
2018-09-05T20:14:03.096Z,101283.12
2018-09-05T20:16:33.538Z,101286.03
2018-09-05T20:19:02.775Z,101285.80
2018-09-05T20:21:32.118Z,101285.63
2018-09-05T20:24:01.189Z,101283.98
2018-09-05T20:26:31.869Z,101281.36
2018-09-05T20:29:01.922Z,101282.31
2018-09-05T20:31:30.766Z,101276.65
2018-09-05T20:33:59.895Z,101280.69
2018-09-05T20:36:30.193Z,101280.42
2018-09-05T20:38:59.740Z,101287.11
2018-09-05T20:41:29.767Z,101287.30
2018-09-05T20:44:00.725Z,101289.45
2018-09-05T20:46:30.185Z,101291.07
2018-09-05T20:48:59.538Z,101288.89
2018-09-05T20:51:28.815Z,101282.33
2018-09-05T20:53:59.540Z,101281.73
2018-09-05T20:56:28.610Z,101284.94
2018-09-05T20:59:00.266Z,101287.51
2018-09-05T21:01:31.483Z,101284.33
2018-09-05T21:04:00.827Z,101280.61
2018-09-05T21:06:29.970Z,101285.74
2018-09-05T21:08:59.801Z,101283.40
2018-09-05T21:11:29.919Z,101280.54
2018-09-05T21:13:59.700Z,101281.23
2018-09-05T21:16:29.377Z,101282.09
2018-09-05T21:18:58.532Z,101276.55
2018-09-05T21:21:28.768Z,101279.08
2018-09-05T21:23:59.398Z,101280.66
2018-09-05T21:26:29.846Z,101276.78
2018-09-05T21:28:58.886Z,101273.42
2018-09-05T21:31:28.882Z,101268.23
2018-09-05T21:33:58.612Z,101273.54
2018-09-05T21:36:28.999Z,101276.25
2018-09-05T21:38:59.275Z,101275.12
2018-09-05T21:41:29.167Z,101275.34
2018-09-05T21:43:58.126Z,101272.03
2018-09-05T21:46:27.177Z,101278.21
2018-09-05T21:48:56.296Z,101270.07
2018-09-05T21:51:26.279Z,101278.52
2018-09-05T21:53:55.879Z,101273.34
2018-09-05T21:56:31.735Z,101272.67
2018-09-05T21:59:01.541Z,101267.65
2018-09-05T22:01:31.275Z,101272.84
2018-09-05T22:04:00.727Z,101275.03
2018-09-05T22:06:30.063Z,101281.13
2018-09-05T22:08:59.190Z,101268.36
2018-09-05T22:11:28.449Z,101277.24
2018-09-05T22:13:59.213Z,101276.34
2018-09-05T22:16:29.461Z,101277.34
2018-09-05T22:18:58.390Z,101277.27
2018-09-05T22:21:27.670Z,101278.32
2018-09-05T22:23:56.991Z,101273.66
2018-09-05T22:26:26.546Z,101281.78
2018-09-05T22:28:56.227Z,101279.25
2018-09-05T22:31:25.584Z,101271.86
2018-09-05T22:33:55.770Z,101278.59
2018-09-05T22:36:26.259Z,101275.58
2018-09-05T22:38:56.053Z,101271.73
2018-09-05T22:41:24.920Z,101268.73
2018-09-05T22:44:04.941Z,101270.46
2018-09-05T22:46:45.308Z,101268.58
2018-09-05T22:51:33.974Z,101267.02
2018-09-05T22:55:21.116Z,101266.94
2018-09-05T23:00:08.804Z,101266.48
2018-09-05T23:04:54.498Z,101270.11
2018-09-05T23:08:38.755Z,101267.98
2018-09-05T23:12:22.497Z,101267.94
2018-09-05T23:15:03.710Z,101261.98
2018-09-05T23:17:43.749Z,101262.73
2018-09-05T23:21:24.873Z,101258.98
2018-09-05T23:24:05.455Z,101256.92
2018-09-05T23:26:34.881Z,101251.73
2018-09-05T23:29:04.777Z,101248.75
2018-09-05T23:31:34.040Z,101241.20
2018-09-05T23:34:02.983Z,101236.83
2018-09-05T23:36:32.346Z,101240.62
2018-09-05T23:39:01.402Z,101244.30
2018-09-05T23:41:30.515Z,101241.50
2018-09-05T23:44:00.611Z,101236.09
2018-09-05T23:46:31.745Z,101234.81
2018-09-05T23:49:01.158Z,101236.55
2018-09-05T23:51:30.420Z,101230.35
2018-09-05T23:54:00.504Z,101234.72
2018-09-05T23:56:30.079Z,101228.79
2018-09-05T23:59:00.631Z,101230.63
